sensor_id;sensor_type;location;lat;lon;timestamp;P1;durP1;ratioP1;P2;durP2;ratioP2
18711;SDS011;9485;49.386;8.674;2024-03-23T00:54:52;4.10;;;3.60;;
18711;SDS011;9485;49.386;8.674;2024-03-23T01:00:14;4.80;;;3.50;;
18711;SDS011;9485;49.386;8.674;2024-03-23T01:05:35;5.83;;;3.33;;
18711;SDS011;9485;49.386;8.674;2024-03-23T01:10:56;4.23;;;3.23;;
18711;SDS011;9485;49.386;8.674;2024-03-23T01:16:18;4.60;;;3.77;;
18711;SDS011;9485;49.386;8.674;2024-03-23T01:21:39;4.67;;;3.97;;
18711;SDS011;9485;49.386;8.674;2024-03-23T01:26:59;4.60;;;3.60;;
18711;SDS011;9485;49.386;8.674;2024-03-23T01:32:19;4.10;;;3.27;;
18711;SDS011;9485;49.386;8.674;2024-03-23T01:37:40;4.07;;;3.30;;
18711;SDS011;9485;49.386;8.674;2024-03-23T01:43:03;3.50;;;3.03;;
18711;SDS011;9485;49.386;8.674;2024-03-23T01:48:26;4.83;;;3.80;;
18711;SDS011;9485;49.386;8.674;2024-03-23T01:53:47;4.07;;;3.67;;
18711;SDS011;9485;49.386;8.674;2024-03-23T01:59:07;4.00;;;3.47;;
18711;SDS011;9485;49.386;8.674;2024-03-23T02:04:27;3.60;;;3.13;;
18711;SDS011;9485;49.386;8.674;2024-03-23T02:09:48;4.27;;;3.30;;
18711;SDS011;9485;49.386;8.674;2024-03-23T02:15:08;3.73;;;3.40;;
18711;SDS011;9485;49.386;8.674;2024-03-23T02:20:29;4.00;;;3.60;;
18711;SDS011;9485;49.386;8.674;2024-03-23T02:25:49;3.97;;;3.10;;
18711;SDS011;9485;49.386;8.674;2024-03-23T02:31:12;4.13;;;3.30;;
18711;SDS011;9485;49.386;8.674;2024-03-23T02:36:33;3.07;;;2.77;;
18711;SDS011;9485;49.386;8.674;2024-03-23T02:41:53;3.60;;;3.20;;
18711;SDS011;9485;49.386;8.674;2024-03-23T02:47:14;3.53;;;3.13;;
18711;SDS011;9485;49.386;8.674;2024-03-23T02:52:34;3.80;;;3.17;;
18711;SDS011;9485;49.386;8.674;2024-03-23T02:57:56;3.30;;;2.93;;
18711;SDS011;9485;49.386;8.674;2024-03-23T03:03:20;3.90;;;3.13;;
18711;SDS011;9485;49.386;8.674;2024-03-23T03:08:41;3.37;;;2.97;;
18711;SDS011;9485;49.386;8.674;2024-03-23T03:14:01;4.00;;;2.60;;
18711;SDS011;9485;49.386;8.674;2024-03-23T03:19:22;3.37;;;2.87;;
18711;SDS011;9485;49.386;8.674;2024-03-23T03:24:43;3.47;;;2.87;;
18711;SDS011;9485;49.386;8.674;2024-03-23T03:30:03;3.30;;;3.00;;
18711;SDS011;9485;49.386;8.674;2024-03-23T03:35:26;3.10;;;2.80;;
18711;SDS011;9485;49.386;8.674;2024-03-23T03:40:46;3.37;;;2.70;;
18711;SDS011;9485;49.386;8.674;2024-03-23T03:46:07;4.37;;;2.87;;
18711;SDS011;9485;49.386;8.674;2024-03-23T03:51:28;4.10;;;3.10;;
18711;SDS011;9485;49.386;8.674;2024-03-23T03:56:48;4.63;;;3.27;;
18711;SDS011;9485;49.386;8.674;2024-03-23T04:02:09;4.90;;;3.30;;
18711;SDS011;9485;49.386;8.674;2024-03-23T04:07:29;4.07;;;3.67;;
18711;SDS011;9485;49.386;8.674;2024-03-23T04:12:50;7.90;;;3.77;;
18711;SDS011;9485;49.386;8.674;2024-03-23T04:18:11;5.30;;;3.97;;
18711;SDS011;9485;49.386;8.674;2024-03-23T04:23:31;5.60;;;4.40;;
18711;SDS011;9485;49.386;8.674;2024-03-23T04:28:51;6.77;;;4.27;;
18711;SDS011;9485;49.386;8.674;2024-03-23T04:34:12;5.30;;;4.43;;
18711;SDS011;9485;49.386;8.674;2024-03-23T04:39:33;6.80;;;5.27;;
18711;SDS011;9485;49.386;8.674;2024-03-23T04:44:53;8.00;;;5.07;;
18711;SDS011;9485;49.386;8.674;2024-03-23T04:50:13;8.07;;;5.30;;
18711;SDS011;9485;49.386;8.674;2024-03-23T04:55:34;7.67;;;5.33;;
18711;SDS011;9485;49.386;8.674;2024-03-23T05:00:54;7.57;;;5.00;;
18711;SDS011;9485;49.386;8.674;2024-03-23T05:06:16;7.23;;;5.07;;
18711;SDS011;9485;49.386;8.674;2024-03-23T05:11:36;6.67;;;5.10;;
18711;SDS011;9485;49.386;8.674;2024-03-23T05:16:58;7.73;;;4.57;;
18711;SDS011;9485;49.386;8.674;2024-03-23T05:22:18;5.30;;;3.77;;
18711;SDS011;9485;49.386;8.674;2024-03-23T05:27:39;3.20;;;2.77;;
18711;SDS011;9485;49.386;8.674;2024-03-23T05:32:59;3.53;;;2.50;;
18711;SDS011;9485;49.386;8.674;2024-03-23T05:38:19;2.23;;;1.87;;
18711;SDS011;9485;49.386;8.674;2024-03-23T05:43:40;1.63;;;1.53;;
18711;SDS011;9485;49.386;8.674;2024-03-23T05:49:01;1.50;;;1.40;;
18711;SDS011;9485;49.386;8.674;2024-03-23T05:54:22;4.63;;;2.50;;
18711;SDS011;9485;49.386;8.674;2024-03-23T05:59:42;2.93;;;2.67;;
18711;SDS011;9485;49.386;8.674;2024-03-23T06:05:04;2.53;;;2.33;;
18711;SDS011;9485;49.386;8.674;2024-03-23T06:10:24;3.00;;;2.40;;
18711;SDS011;9485;49.386;8.674;2024-03-23T06:15:45;2.83;;;2.10;;
18711;SDS011;9485;49.386;8.674;2024-03-23T06:21:05;2.10;;;1.77;;
18711;SDS011;9485;49.386;8.674;2024-03-23T06:26:33;1.60;;;1.50;;
18711;SDS011;9485;49.386;8.674;2024-03-23T06:31:54;2.03;;;1.47;;
18711;SDS011;9485;49.386;8.674;2024-03-23T06:37:14;1.10;;;1.10;;
18711;SDS011;9485;49.386;8.674;2024-03-23T06:42:36;0.80;;;0.80;;
18711;SDS011;9485;49.386;8.674;2024-03-23T06:47:56;0.77;;;0.77;;
18711;SDS011;9485;49.386;8.674;2024-03-23T06:53:17;0.90;;;0.70;;
18711;SDS011;9485;49.386;8.674;2024-03-23T06:58:37;0.60;;;0.60;;
18711;SDS011;9485;49.386;8.674;2024-03-23T07:03:57;1.50;;;0.70;;
18711;SDS011;9485;49.386;8.674;2024-03-23T07:09:18;0.70;;;0.70;;
18711;SDS011;9485;49.386;8.674;2024-03-23T07:14:38;0.90;;;0.50;;
18711;SDS011;9485;49.386;8.674;2024-03-23T07:19:58;0.53;;;0.53;;
18711;SDS011;9485;49.386;8.674;2024-03-23T07:25:20;0.60;;;0.60;;
18711;SDS011;9485;49.386;8.674;2024-03-23T07:30:42;0.73;;;0.73;;
18711;SDS011;9485;49.386;8.674;2024-03-23T07:36:02;0.73;;;0.73;;
18711;SDS011;9485;49.386;8.674;2024-03-23T07:41:23;0.73;;;0.70;;
18711;SDS011;9485;49.386;8.674;2024-03-23T07:46:43;0.60;;;0.60;;
18711;SDS011;9485;49.386;8.674;2024-03-23T07:52:04;2.17;;;0.97;;
18711;SDS011;9485;49.386;8.674;2024-03-23T07:57:25;0.83;;;0.83;;
18711;SDS011;9485;49.386;8.674;2024-03-23T08:02:45;0.80;;;0.80;;
18711;SDS011;9485;49.386;8.674;2024-03-23T08:08:05;0.80;;;0.80;;
18711;SDS011;9485;49.386;8.674;2024-03-23T08:13:26;1.00;;;0.90;;
18711;SDS011;9485;49.386;8.674;2024-03-23T08:18:46;1.53;;;1.00;;
18711;SDS011;9485;49.386;8.674;2024-03-23T08:24:07;2.53;;;1.23;;
18711;SDS011;9485;49.386;8.674;2024-03-23T08:29:27;3.50;;;1.37;;
18711;SDS011;9485;49.386;8.674;2024-03-23T08:34:48;1.30;;;1.20;;
18711;SDS011;9485;49.386;8.674;2024-03-23T08:40:08;1.63;;;1.27;;
18711;SDS011;9485;49.386;8.674;2024-03-23T08:45:29;2.07;;;1.20;;
18711;SDS011;9485;49.386;8.674;2024-03-23T08:56:38;3.97;;;1.50;;
18711;SDS011;9485;49.386;8.674;2024-03-23T09:01:59;3.40;;;1.80;;
18711;SDS011;9485;49.386;8.674;2024-03-23T09:07:20;2.53;;;1.43;;
18711;SDS011;9485;49.386;8.674;2024-03-23T09:12:40;2.07;;;1.40;;
18711;SDS011;9485;49.386;8.674;2024-03-23T09:18:01;3.30;;;1.70;;
18711;SDS011;9485;49.386;8.674;2024-03-23T09:23:23;1.93;;;1.40;;
18711;SDS011;9485;49.386;8.674;2024-03-23T09:28:43;3.43;;;1.90;;
18711;SDS011;9485;49.386;8.674;2024-03-23T09:34:04;3.13;;;1.20;;
18711;SDS011;9485;49.386;8.674;2024-03-23T09:39:24;3.00;;;1.93;;
18711;SDS011;9485;49.386;8.674;2024-03-23T09:44:44;1.60;;;1.30;;
18711;SDS011;9485;49.386;8.674;2024-03-23T09:50:05;2.37;;;1.43;;
18711;SDS011;9485;49.386;8.674;2024-03-23T09:55:27;2.13;;;1.60;;
18711;SDS011;9485;49.386;8.674;2024-03-23T10:00:47;2.50;;;1.60;;
18711;SDS011;9485;49.386;8.674;2024-03-23T10:06:08;2.53;;;1.57;;
18711;SDS011;9485;49.386;8.674;2024-03-23T10:11:28;3.23;;;1.83;;
18711;SDS011;9485;49.386;8.674;2024-03-23T10:16:49;3.73;;;1.77;;
18711;SDS011;9485;49.386;8.674;2024-03-23T10:22:12;4.10;;;2.00;;
18711;SDS011;9485;49.386;8.674;2024-03-23T10:27:35;3.40;;;1.57;;
18711;SDS011;9485;49.386;8.674;2024-03-23T10:33:08;4.63;;;1.87;;
18711;SDS011;9485;49.386;8.674;2024-03-23T10:38:32;5.07;;;1.63;;
18711;SDS011;9485;49.386;8.674;2024-03-23T10:43:53;3.13;;;1.40;;
18711;SDS011;9485;49.386;8.674;2024-03-23T10:49:18;2.10;;;1.40;;
18711;SDS011;9485;49.386;8.674;2024-03-23T10:54:38;4.23;;;1.47;;
18711;SDS011;9485;49.386;8.674;2024-03-23T11:00:03;3.60;;;1.60;;
18711;SDS011;9485;49.386;8.674;2024-03-23T11:10:45;2.10;;;1.00;;
18711;SDS011;9485;49.386;8.674;2024-03-23T11:16:15;2.10;;;1.27;;
18711;SDS011;9485;49.386;8.674;2024-03-23T11:21:53;1.83;;;1.00;;
18711;SDS011;9485;49.386;8.674;2024-03-23T11:27:17;2.03;;;1.17;;
18711;SDS011;9485;49.386;8.674;2024-03-23T11:32:39;3.70;;;1.38;;
18711;SDS011;9485;49.386;8.674;2024-03-23T11:38:09;2.67;;;1.23;;
18711;SDS011;9485;49.386;8.674;2024-03-23T11:43:36;3.15;;;1.00;;
18711;SDS011;9485;49.386;8.674;2024-03-23T11:48:57;1.10;;;0.90;;
18711;SDS011;9485;49.386;8.674;2024-03-23T11:54:19;1.43;;;1.20;;
18711;SDS011;9485;49.386;8.674;2024-03-23T11:59:45;1.58;;;0.90;;
18711;SDS011;9485;49.386;8.674;2024-03-23T12:05:15;4.57;;;1.90;;
18711;SDS011;9485;49.386;8.674;2024-03-23T12:10:36;4.63;;;1.57;;
18711;SDS011;9485;49.386;8.674;2024-03-23T12:16:08;4.20;;;1.60;;
18711;SDS011;9485;49.386;8.674;2024-03-23T12:21:34;2.60;;;1.30;;
18711;SDS011;9485;49.386;8.674;2024-03-23T12:26:55;2.63;;;1.40;;
18711;SDS011;9485;49.386;8.674;2024-03-23T12:32:24;3.13;;;1.67;;
18711;SDS011;9485;49.386;8.674;2024-03-23T12:37:44;2.80;;;1.50;;
18711;SDS011;9485;49.386;8.674;2024-03-23T12:43:05;2.70;;;2.00;;
18711;SDS011;9485;49.386;8.674;2024-03-23T12:48:26;1.60;;;1.50;;
18711;SDS011;9485;49.386;8.674;2024-03-23T12:53:47;2.30;;;1.47;;
18711;SDS011;9485;49.386;8.674;2024-03-23T12:59:07;3.00;;;1.70;;
18711;SDS011;9485;49.386;8.674;2024-03-23T13:04:27;1.13;;;1.07;;
18711;SDS011;9485;49.386;8.674;2024-03-23T13:09:52;1.50;;;1.30;;
18711;SDS011;9485;49.386;8.674;2024-03-23T13:15:15;2.47;;;1.00;;
18711;SDS011;9485;49.386;8.674;2024-03-23T13:20:37;1.23;;;1.03;;
18711;SDS011;9485;49.386;8.674;2024-03-23T13:25:57;0.97;;;0.60;;
18711;SDS011;9485;49.386;8.674;2024-03-23T13:31:17;1.47;;;0.90;;
18711;SDS011;9485;49.386;8.674;2024-03-23T13:36:38;0.80;;;0.80;;
18711;SDS011;9485;49.386;8.674;2024-03-23T13:41:58;0.83;;;0.70;;
18711;SDS011;9485;49.386;8.674;2024-03-23T13:47:19;0.63;;;0.63;;
18711;SDS011;9485;49.386;8.674;2024-03-23T13:52:39;0.70;;;0.70;;
18711;SDS011;9485;49.386;8.674;2024-03-23T13:57:59;1.63;;;0.70;;
18711;SDS011;9485;49.386;8.674;2024-03-23T14:03:20;2.30;;;0.80;;
18711;SDS011;9485;49.386;8.674;2024-03-23T14:08:40;0.60;;;0.60;;
18711;SDS011;9485;49.386;8.674;2024-03-23T14:14:01;1.03;;;0.60;;
18711;SDS011;9485;49.386;8.674;2024-03-23T14:19:22;0.97;;;0.70;;
18711;SDS011;9485;49.386;8.674;2024-03-23T14:24:42;1.50;;;0.80;;
18711;SDS011;9485;49.386;8.674;2024-03-23T14:30:03;1.53;;;0.77;;
18711;SDS011;9485;49.386;8.674;2024-03-23T14:35:25;2.30;;;0.80;;
18711;SDS011;9485;49.386;8.674;2024-03-23T14:40:45;1.33;;;0.77;;
18711;SDS011;9485;49.386;8.674;2024-03-23T14:46:06;1.70;;;0.63;;
18711;SDS011;9485;49.386;8.674;2024-03-23T14:51:33;0.60;;;0.60;;
18711;SDS011;9485;49.386;8.674;2024-03-23T14:56:53;0.93;;;0.73;;
18711;SDS011;9485;49.386;8.674;2024-03-23T15:02:15;2.23;;;0.83;;
18711;SDS011;9485;49.386;8.674;2024-03-23T15:07:36;1.83;;;0.80;;
18711;SDS011;9485;49.386;8.674;2024-03-23T15:12:57;0.93;;;0.60;;
18711;SDS011;9485;49.386;8.674;2024-03-23T15:18:17;0.70;;;0.70;;
18711;SDS011;9485;49.386;8.674;2024-03-23T15:23:44;0.93;;;0.60;;
18711;SDS011;9485;49.386;8.674;2024-03-23T15:29:04;0.77;;;0.60;;
18711;SDS011;9485;49.386;8.674;2024-03-23T15:34:31;0.70;;;0.70;;
18711;SDS011;9485;49.386;8.674;2024-03-23T15:39:51;2.10;;;1.00;;
18711;SDS011;9485;49.386;8.674;2024-03-23T15:45:11;1.30;;;0.97;;
18711;SDS011;9485;49.386;8.674;2024-03-23T15:50:32;1.37;;;0.77;;
18711;SDS011;9485;49.386;8.674;2024-03-23T15:55:53;0.90;;;0.67;;
18711;SDS011;9485;49.386;8.674;2024-03-23T16:01:21;0.60;;;0.60;;
18711;SDS011;9485;49.386;8.674;2024-03-23T16:06:43;0.57;;;0.57;;
18711;SDS011;9485;49.386;8.674;2024-03-23T16:12:03;0.70;;;0.70;;
18711;SDS011;9485;49.386;8.674;2024-03-23T16:17:24;0.57;;;0.57;;
18711;SDS011;9485;49.386;8.674;2024-03-23T16:22:44;0.60;;;0.60;;
18711;SDS011;9485;49.386;8.674;2024-03-23T16:28:04;5.23;;;1.00;;
18711;SDS011;9485;49.386;8.674;2024-03-23T16:33:25;3.97;;;1.70;;
18711;SDS011;9485;49.386;8.674;2024-03-23T16:38:47;1.37;;;1.00;;
18711;SDS011;9485;49.386;8.674;2024-03-23T16:44:07;2.10;;;1.17;;
18711;SDS011;9485;49.386;8.674;2024-03-23T16:49:29;0.70;;;0.70;;
18711;SDS011;9485;49.386;8.674;2024-03-23T16:54:49;0.80;;;0.80;;
18711;SDS011;9485;49.386;8.674;2024-03-23T17:00:10;0.90;;;0.90;;
18711;SDS011;9485;49.386;8.674;2024-03-23T17:05:38;1.00;;;0.90;;
18711;SDS011;9485;49.386;8.674;2024-03-23T17:10:59;0.60;;;0.60;;
18711;SDS011;9485;49.386;8.674;2024-03-23T17:16:20;1.03;;;0.67;;
18711;SDS011;9485;49.386;8.674;2024-03-23T17:21:40;0.70;;;0.70;;
18711;SDS011;9485;49.386;8.674;2024-03-23T17:27:02;1.03;;;0.90;;
18711;SDS011;9485;49.386;8.674;2024-03-23T17:32:23;1.23;;;1.10;;
18711;SDS011;9485;49.386;8.674;2024-03-23T17:37:43;1.23;;;1.10;;
18711;SDS011;9485;49.386;8.674;2024-03-23T17:43:04;1.17;;;1.10;;
18711;SDS011;9485;49.386;8.674;2024-03-23T17:48:25;0.90;;;0.90;;
18711;SDS011;9485;49.386;8.674;2024-03-23T17:53:45;1.20;;;1.10;;
18711;SDS011;9485;49.386;8.674;2024-03-23T17:59:05;1.77;;;0.90;;
18711;SDS011;9485;49.386;8.674;2024-03-23T18:04:27;1.60;;;1.00;;
18711;SDS011;9485;49.386;8.674;2024-03-23T18:09:47;0.90;;;0.80;;
18711;SDS011;9485;49.386;8.674;2024-03-23T18:15:08;2.07;;;1.10;;
18711;SDS011;9485;49.386;8.674;2024-03-23T18:20:29;0.90;;;0.90;;
18711;SDS011;9485;49.386;8.674;2024-03-23T18:25:52;1.57;;;1.03;;
18711;SDS011;9485;49.386;8.674;2024-03-23T18:31:15;2.10;;;1.10;;
18711;SDS011;9485;49.386;8.674;2024-03-23T18:36:35;1.80;;;1.00;;
18711;SDS011;9485;49.386;8.674;2024-03-23T18:41:56;1.20;;;1.03;;
18711;SDS011;9485;49.386;8.674;2024-03-23T18:47:16;1.13;;;1.07;;
18711;SDS011;9485;49.386;8.674;2024-03-23T18:52:36;1.20;;;1.10;;
18711;SDS011;9485;49.386;8.674;2024-03-23T18:57:57;1.60;;;0.90;;
18711;SDS011;9485;49.386;8.674;2024-03-23T19:03:17;1.90;;;1.00;;
18711;SDS011;9485;49.386;8.674;2024-03-23T19:08:38;1.87;;;1.10;;
18711;SDS011;9485;49.386;8.674;2024-03-23T19:13:59;1.10;;;1.00;;
18711;SDS011;9485;49.386;8.674;2024-03-23T19:19:20;1.07;;;1.00;;
18711;SDS011;9485;49.386;8.674;2024-03-23T19:24:40;1.43;;;1.30;;
18711;SDS011;9485;49.386;8.674;2024-03-23T19:30:01;1.00;;;1.00;;
18711;SDS011;9485;49.386;8.674;2024-03-23T19:35:22;1.30;;;1.20;;
18711;SDS011;9485;49.386;8.674;2024-03-23T19:40:45;1.27;;;1.17;;
18711;SDS011;9485;49.386;8.674;2024-03-23T19:46:15;1.30;;;1.10;;
18711;SDS011;9485;49.386;8.674;2024-03-23T19:51:36;2.43;;;1.10;;
18711;SDS011;9485;49.386;8.674;2024-03-23T19:56:57;1.53;;;1.20;;
18711;SDS011;9485;49.386;8.674;2024-03-23T20:02:18;1.83;;;1.20;;
18711;SDS011;9485;49.386;8.674;2024-03-23T20:07:41;1.40;;;1.30;;
18711;SDS011;9485;49.386;8.674;2024-03-23T20:13:01;1.30;;;1.20;;
18711;SDS011;9485;49.386;8.674;2024-03-23T20:18:22;0.93;;;0.90;;
18711;SDS011;9485;49.386;8.674;2024-03-23T20:23:43;4.37;;;1.20;;
18711;SDS011;9485;49.386;8.674;2024-03-23T20:29:04;1.20;;;1.10;;
18711;SDS011;9485;49.386;8.674;2024-03-23T20:34:25;1.47;;;1.10;;
18711;SDS011;9485;49.386;8.674;2024-03-23T20:39:46;1.47;;;1.37;;
18711;SDS011;9485;49.386;8.674;2024-03-23T20:45:07;1.37;;;1.20;;
18711;SDS011;9485;49.386;8.674;2024-03-23T20:50:28;1.27;;;1.17;;
18711;SDS011;9485;49.386;8.674;2024-03-23T20:55:50;2.90;;;1.40;;
18711;SDS011;9485;49.386;8.674;2024-03-23T21:01:12;2.07;;;1.30;;
18711;SDS011;9485;49.386;8.674;2024-03-23T21:06:34;1.50;;;1.40;;
18711;SDS011;9485;49.386;8.674;2024-03-23T21:11:54;2.57;;;1.70;;
18711;SDS011;9485;49.386;8.674;2024-03-23T21:17:14;1.57;;;1.47;;
18711;SDS011;9485;49.386;8.674;2024-03-23T21:22:35;1.83;;;1.33;;
18711;SDS011;9485;49.386;8.674;2024-03-23T21:27:55;1.50;;;1.40;;
18711;SDS011;9485;49.386;8.674;2024-03-23T21:33:16;1.63;;;1.43;;
18711;SDS011;9485;49.386;8.674;2024-03-23T21:38:36;1.60;;;1.00;;
18711;SDS011;9485;49.386;8.674;2024-03-23T21:43:56;1.50;;;1.17;;
18711;SDS011;9485;49.386;8.674;2024-03-23T21:49:17;2.80;;;1.30;;
18711;SDS011;9485;49.386;8.674;2024-03-23T21:54:39;2.37;;;1.43;;
18711;SDS011;9485;49.386;8.674;2024-03-23T21:59:59;1.63;;;1.37;;
18711;SDS011;9485;49.386;8.674;2024-03-23T22:05:20;2.87;;;1.50;;
18711;SDS011;9485;49.386;8.674;2024-03-23T22:10:40;2.57;;;1.50;;
18711;SDS011;9485;49.386;8.674;2024-03-23T22:16:03;1.70;;;1.20;;
18711;SDS011;9485;49.386;8.674;2024-03-23T22:21:26;2.43;;;1.30;;
18711;SDS011;9485;49.386;8.674;2024-03-23T22:26:46;1.57;;;1.40;;
18711;SDS011;9485;49.386;8.674;2024-03-23T22:32:06;1.60;;;1.27;;
18711;SDS011;9485;49.386;8.674;2024-03-23T22:37:27;2.60;;;1.50;;
18711;SDS011;9485;49.386;8.674;2024-03-23T22:42:47;1.40;;;1.30;;
18711;SDS011;9485;49.386;8.674;2024-03-23T22:48:07;1.53;;;1.20;;
18711;SDS011;9485;49.386;8.674;2024-03-23T22:53:28;2.30;;;1.23;;
18711;SDS011;9485;49.386;8.674;2024-03-23T22:58:49;2.20;;;1.20;;
18711;SDS011;9485;49.386;8.674;2024-03-23T23:04:09;1.73;;;1.27;;
18711;SDS011;9485;49.386;8.674;2024-03-23T23:09:30;1.40;;;1.30;;
18711;SDS011;9485;49.386;8.674;2024-03-23T23:14:51;2.27;;;1.33;;
18711;SDS011;9485;49.386;8.674;2024-03-23T23:20:11;1.70;;;1.20;;
18711;SDS011;9485;49.386;8.674;2024-03-23T23:25:32;2.67;;;1.50;;
18711;SDS011;9485;49.386;8.674;2024-03-23T23:30:56;2.03;;;1.40;;
18711;SDS011;9485;49.386;8.674;2024-03-23T23:36:19;1.23;;;1.13;;
18711;SDS011;9485;49.386;8.674;2024-03-23T23:41:40;2.17;;;1.70;;
18711;SDS011;9485;49.386;8.674;2024-03-23T23:47:00;2.33;;;1.30;;
18711;SDS011;9485;49.386;8.674;2024-03-23T23:52:20;1.20;;;1.10;;
18711;SDS011;9485;49.386;8.674;2024-03-23T23:57:40;1.70;;;1.20;;
